createdAt,value
2023-03-05T00:02:37.865Z,100822.94
2023-03-05T00:07:41.580Z,100819.41
2023-03-05T00:12:46.853Z,100833.84
2023-03-05T00:17:50.567Z,100835.13
2023-03-05T00:22:54.225Z,100831.06
2023-03-05T00:27:59.618Z,100826.75
2023-03-05T00:33:03.268Z,100826.25
2023-03-05T00:38:06.940Z,100819.41
2023-03-05T00:43:12.604Z,100812.41
2023-03-05T00:48:16.248Z,100818.66
2023-03-05T00:53:20.362Z,100819.47
2023-03-05T00:58:25.755Z,100809.13
2023-03-05T01:03:29.636Z,100822.22
2023-03-05T01:08:33.311Z,100811.84
2023-03-05T01:13:38.660Z,100818.00
2023-03-05T01:18:42.332Z,100808.38
2023-03-05T01:23:45.943Z,100807.91
2023-03-05T01:28:51.227Z,100806.50
2023-03-05T01:33:55.168Z,100802.50
2023-03-05T01:38:59.092Z,100805.97
2023-03-05T01:44:04.532Z,100807.81
2023-03-05T01:49:16.587Z,100815.63
2023-03-05T01:54:23.403Z,100817.19
2023-03-05T01:59:29.092Z,100817.16
2023-03-05T02:04:38.869Z,100812.22
2023-03-05T02:09:43.007Z,100814.88
2023-03-05T02:14:51.888Z,100822.72
2023-03-05T02:19:57.775Z,100824.34
2023-03-05T02:25:03.706Z,100824.97
2023-03-05T02:30:08.561Z,100840.28
2023-03-05T02:35:12.198Z,100843.00
2023-03-05T02:40:17.912Z,100832.47
2023-03-05T02:45:21.727Z,100832.16
2023-03-05T02:50:25.726Z,100848.66
2023-03-05T02:55:31.058Z,100865.25
2023-03-05T03:00:34.824Z,100848.19
2023-03-05T03:05:38.474Z,100838.03
2023-03-05T03:10:43.812Z,100829.50
2023-03-05T03:15:47.673Z,100832.09
2023-03-05T03:20:51.310Z,100826.91
2023-03-05T03:25:56.604Z,100832.19
2023-03-05T03:31:00.241Z,100826.16
2023-03-05T03:36:05.183Z,100825.44
2023-03-05T03:41:10.584Z,100828.06
2023-03-05T03:46:14.248Z,100822.94
2023-03-05T03:51:17.915Z,100829.19
2023-03-05T03:56:24.352Z,100820.44
2023-03-05T04:01:28.048Z,100837.16
2023-03-05T04:06:31.781Z,100829.31
2023-03-05T04:11:37.498Z,100827.84
2023-03-05T04:16:41.125Z,100819.94
2023-03-05T04:21:44.748Z,100832.84
2023-03-05T04:26:50.046Z,100831.75
2023-03-05T04:31:53.653Z,100826.66
2023-03-05T04:36:57.313Z,100824.75
2023-03-05T04:42:02.819Z,100825.56
2023-03-05T04:47:06.703Z,100819.31
2023-03-05T04:52:11.906Z,100820.88
2023-03-05T04:57:17.203Z,100836.44
2023-03-05T05:02:20.855Z,100828.59
2023-03-05T05:07:24.490Z,100823.53
2023-03-05T05:12:32.982Z,100822.53
2023-03-05T05:17:36.760Z,100815.66
2023-03-05T05:22:40.430Z,100814.72
2023-03-05T05:27:45.712Z,100805.09
2023-03-05T05:32:49.340Z,100799.75
2023-03-05T05:37:53.637Z,100805.94
2023-03-05T05:42:58.892Z,100792.03
2023-03-05T05:48:02.549Z,100784.06
2023-03-05T05:53:06.197Z,100782.31
2023-03-05T05:58:11.464Z,100773.72
2023-03-05T06:03:15.288Z,100782.19
2023-03-05T06:08:19.239Z,100783.72
2023-03-05T06:13:24.547Z,100776.03
2023-03-05T06:18:28.303Z,100763.84
2023-03-05T06:23:31.954Z,100759.38
2023-03-05T06:28:37.276Z,100747.97
2023-03-05T06:33:41.603Z,100744.53
2023-03-05T06:38:46.524Z,100751.50
2023-03-05T06:43:52.648Z,100744.50
2023-03-05T06:48:57.359Z,100743.50
2023-03-05T06:54:02.814Z,100741.69
2023-03-05T06:59:08.484Z,100720.97
2023-03-05T07:04:13.353Z,100726.03
2023-03-05T07:09:17.173Z,100731.97
2023-03-05T07:14:22.495Z,100733.75
2023-03-05T07:19:26.135Z,100711.94
2023-03-05T07:24:30.481Z,100704.44
2023-03-05T07:29:35.765Z,100693.81
2023-03-05T07:34:39.412Z,100663.28
2023-03-05T07:39:43.226Z,100644.13
2023-03-05T07:44:48.956Z,100632.72
2023-03-05T07:49:52.656Z,100637.03
2023-03-05T07:54:56.275Z,100628.22
2023-03-05T08:00:01.559Z,100616.09
2023-03-05T08:05:05.608Z,100603.06
2023-03-05T08:10:10.616Z,100601.47
2023-03-05T08:15:16.012Z,100607.38
2023-03-05T08:20:19.962Z,100573.72
2023-03-05T08:25:23.719Z,100587.81
2023-03-05T08:30:29.046Z,100574.59
2023-03-05T08:35:32.883Z,100576.28
2023-03-05T08:40:36.588Z,100600.97
2023-03-05T08:45:42.411Z,100601.09
2023-03-05T08:50:46.061Z,100557.81
2023-03-05T08:55:55.688Z,100582.09
2023-03-05T09:01:01.955Z,100703.94
2023-03-05T09:06:07.305Z,100699.81
2023-03-05T09:11:13.337Z,100709.41
2023-03-05T09:16:20.178Z,100716.75
2023-03-05T09:21:23.919Z,100713.31
2023-03-05T09:26:27.808Z,100698.66
2023-03-05T09:31:33.154Z,100674.44
2023-03-05T09:36:36.863Z,100664.00
2023-03-05T09:42:03.256Z,100652.69
2023-03-05T09:47:22.511Z,100641.41
2023-03-05T09:52:35.497Z,100634.31
2023-03-05T09:57:43.183Z,100647.22
2023-03-05T10:02:52.957Z,100655.91
2023-03-05T10:08:01.205Z,100661.97
2023-03-05T10:13:12.440Z,100663.50
2023-03-05T10:18:25.042Z,100662.53
2023-03-05T10:24:06.620Z,100663.41
2023-03-05T10:29:28.542Z,100680.72
2023-03-05T10:35:00.170Z,100680.72
2023-03-05T10:40:16.835Z,100685.81
2023-03-05T10:45:22.246Z,100666.84
2023-03-05T10:50:29.014Z,100652.25
2023-03-05T10:55:32.915Z,100645.28
2023-03-05T11:00:36.673Z,100660.84
2023-03-05T11:05:47.592Z,100641.69
2023-03-05T11:11:04.473Z,100648.56
2023-03-05T11:16:17.060Z,100667.72
2023-03-05T11:21:25.952Z,100673.66
2023-03-05T11:26:29.750Z,100671.94
2023-03-05T11:31:34.267Z,100658.78
2023-03-05T11:36:41.098Z,100679.47
2023-03-05T11:41:48.628Z,100687.34
2023-03-05T11:46:57.057Z,100681.31
2023-03-05T11:52:12.011Z,100690.81
2023-03-05T11:57:17.720Z,100684.66
2023-03-05T12:02:24.834Z,100691.47
2023-03-05T12:07:37.323Z,100704.25
2023-03-05T12:12:48.318Z,100696.41
2023-03-05T12:18:05.756Z,100717.25
2023-03-05T12:23:15.219Z,100721.03
2023-03-05T12:28:40.121Z,100735.81
2023-03-05T12:33:44.971Z,100727.03
2023-03-05T12:38:51.188Z,100748.97
2023-03-05T12:44:26.552Z,100786.25
2023-03-05T12:49:36.334Z,100779.34
2023-03-05T12:54:44.209Z,100768.16
2023-03-05T12:59:52.066Z,100782.25
2023-03-05T13:05:00.859Z,100777.06
2023-03-05T13:10:06.884Z,100785.75
2023-03-05T13:15:17.161Z,100785.69
2023-03-05T13:20:30.754Z,100790.88
2023-03-05T13:25:36.076Z,100803.00
2023-03-05T13:30:40.165Z,100801.31
2023-03-05T13:35:46.737Z,100799.78
2023-03-05T13:41:06.521Z,100804.81
2023-03-05T13:46:10.270Z,100826.38
2023-03-05T13:51:16.975Z,100855.00
2023-03-05T13:56:23.329Z,100857.59
2023-03-05T14:01:31.953Z,100861.09
2023-03-05T14:06:49.099Z,100866.25
2023-03-05T14:12:03.366Z,100880.06
2023-03-05T14:17:33.373Z,100882.63
2023-03-05T14:22:39.796Z,100894.81
2023-03-05T14:27:48.119Z,100919.06
2023-03-05T14:32:54.633Z,100920.78
2023-03-05T14:37:58.302Z,100920.81
2023-03-05T14:43:03.997Z,100927.69
2023-03-05T14:48:09.034Z,100930.28
2023-03-05T14:53:18.267Z,100936.31
2023-03-05T14:58:25.877Z,100952.69
2023-03-05T15:03:29.591Z,100960.50
2023-03-05T15:08:33.648Z,100961.34
2023-03-05T15:13:38.937Z,100976.03
2023-03-05T15:18:42.554Z,100997.63
2023-03-05T15:23:46.146Z,100993.13
2023-03-05T15:28:51.449Z,101003.34
2023-03-05T15:33:55.086Z,101014.22
2023-03-05T15:38:58.739Z,101023.44
2023-03-05T15:44:04.025Z,101036.59
2023-03-05T15:49:07.666Z,101060.56
2023-03-05T15:54:11.340Z,101070.09
2023-03-05T15:59:16.719Z,101116.59
2023-03-05T16:04:20.408Z,101088.78
2023-03-05T16:09:24.129Z,101087.28
2023-03-05T16:14:31.162Z,101096.78
2023-03-05T16:19:37.679Z,101087.09
2023-03-05T16:24:41.460Z,101085.84
2023-03-05T16:29:46.740Z,101090.31
2023-03-05T16:34:50.504Z,101097.59
2023-03-05T16:39:54.128Z,101097.75
2023-03-05T16:44:59.387Z,101108.44
2023-03-05T16:50:03.325Z,101115.47
2023-03-05T16:55:07.681Z,101124.34
2023-03-05T17:00:14.326Z,101126.38
2023-03-05T17:05:18.085Z,101140.63
2023-03-05T17:10:21.790Z,101141.09
2023-03-05T17:15:27.328Z,101157.44
2023-03-05T17:20:31.023Z,101170.75
2023-03-05T17:25:34.674Z,101176.34
2023-03-05T17:30:40.577Z,101183.56
2023-03-05T17:35:44.997Z,101186.19
2023-03-05T17:40:50.828Z,101183.84
2023-03-05T17:45:56.177Z,101183.47
2023-03-05T17:51:00.128Z,101200.47
2023-03-05T17:56:06.933Z,101222.81
2023-03-05T18:01:12.220Z,101242.09
2023-03-05T18:06:15.945Z,101246.03
2023-03-05T18:11:20.330Z,101250.13
2023-03-05T18:16:25.667Z,101246.16
2023-03-05T18:21:29.373Z,101258.84
2023-03-05T18:26:33.040Z,101260.06
2023-03-05T18:31:38.338Z,101265.09
2023-03-05T18:36:42.568Z,101262.47
2023-03-05T18:41:46.357Z,101275.34
2023-03-05T18:46:51.672Z,101283.50
2023-03-05T18:51:55.313Z,101285.09
2023-03-05T18:56:58.959Z,101293.75
2023-03-05T19:02:04.219Z,101308.78
2023-03-05T19:07:08.026Z,101304.00
2023-03-05T19:12:11.670Z,101311.91
2023-03-05T19:17:18.132Z,101318.03
2023-03-05T19:22:22.265Z,101318.09
2023-03-05T19:27:27.131Z,101322.56
2023-03-05T19:32:33.428Z,101314.78
2023-03-05T19:37:37.118Z,101317.16
2023-03-05T19:42:40.836Z,101323.13
2023-03-05T19:47:47.088Z,101316.94
2023-03-05T19:52:50.736Z,101321.25
2023-03-05T19:57:54.390Z,101324.59
2023-03-05T20:02:59.633Z,101307.44
2023-03-05T20:08:03.286Z,101314.16
2023-03-05T20:13:06.945Z,101312.03
2023-03-05T20:18:12.260Z,101316.47
2023-03-05T20:23:15.851Z,101309.22
2023-03-05T20:28:19.535Z,101295.28
2023-03-05T20:33:25.380Z,101290.22
2023-03-05T20:38:29.477Z,101303.25
2023-03-05T20:43:34.867Z,101298.00
2023-03-05T20:48:40.161Z,101295.59
2023-03-05T20:53:44.673Z,101285.47
2023-03-05T20:58:48.357Z,101286.38
2023-03-05T21:03:53.677Z,101287.56
2023-03-05T21:08:57.607Z,101284.34
2023-03-05T21:14:01.260Z,101299.50
2023-03-05T21:19:06.548Z,101300.28
2023-03-05T21:24:10.239Z,101293.72
2023-03-05T21:29:13.890Z,101296.94
2023-03-05T21:34:19.188Z,101308.28
2023-03-05T21:39:22.781Z,101296.66
2023-03-05T21:44:26.468Z,101289.00
2023-03-05T21:49:31.759Z,101296.22
2023-03-05T21:54:35.397Z,101286.28
2023-03-05T21:59:41.296Z,101296.63
2023-03-05T22:04:47.157Z,101285.28
2023-03-05T22:09:55.112Z,101299.00
2023-03-05T22:14:58.736Z,101294.88
2023-03-05T22:20:04.391Z,101295.56
2023-03-05T22:25:08.939Z,101300.19
2023-03-05T22:30:14.271Z,101293.31
2023-03-05T22:35:19.765Z,101297.91
2023-03-05T22:40:23.878Z,101294.28
2023-03-05T22:45:30.152Z,101298.94
2023-03-05T22:50:35.443Z,101304.69
2023-03-05T22:55:40.417Z,101301.69
2023-03-05T23:00:44.024Z,101304.13
2023-03-05T23:05:49.312Z,101303.31
2023-03-05T23:10:53.577Z,101306.34
2023-03-05T23:15:57.250Z,101307.38
2023-03-05T23:21:02.546Z,101315.34
2023-03-05T23:26:06.437Z,101321.81
2023-03-05T23:31:10.121Z,101323.47
2023-03-05T23:36:15.440Z,101319.34
2023-03-05T23:41:19.040Z,101315.78
2023-03-05T23:46:22.805Z,101323.13
2023-03-05T23:51:28.121Z,101325.09
2023-03-05T23:56:31.820Z,101333.78
